Time;durP1;ratioP1;P1;durP2;ratioP2;P2;SDS_P1;SDS_P2;PMS_P1;PMS_P2;Temp;Humidity;BMP_temperature;BMP_pressure;BME280_temperature;BME280_humidity;BME280_pressure;Samples;Min_cycle;Max_cycle;Signal;HPM_P1;HPM_P2
2021/05/11 00:01:18;;;;;;;1.50;0.80;;;17.90;95.70;;;;;;4974532;28;20210;-76
2021/05/11 00:03:44;;;;;;;1.20;0.80;;;17.80;96.10;;;;;;4991686;28;20195;-77
2021/05/11 00:06:11;;;;;;;1.33;0.87;;;17.70;98.00;;;;;;4958565;28;20182;-76
2021/05/11 00:08:37;;;;;;;1.60;0.70;;;17.60;98.00;;;;;;4991454;28;20578;-76
2021/05/11 00:11:03;;;;;;;1.77;0.90;;;17.50;99.00;;;;;;4974248;28;20943;-77
2021/05/11 00:13:29;;;;;;;1.80;1.10;;;17.40;99.90;;;;;;4991838;28;20594;-76
2021/05/11 00:15:55;;;;;;;1.30;0.70;;;17.30;99.90;;;;;;4991772;28;20598;-76
2021/05/11 00:18:21;;;;;;;2.43;1.20;;;17.20;99.90;;;;;;4974214;28;20567;-76
2021/05/11 00:20:46;;;;;;;1.87;0.90;;;17.20;99.90;;;;;;4996405;28;20610;-76
2021/05/11 00:23:12;;;;;;;2.07;1.07;;;17.10;99.90;;;;;;4977162;28;20722;-76
2021/05/11 00:25:38;;;;;;;1.60;1.10;;;17.00;99.90;;;;;;4977803;28;20182;-76
2021/05/11 00:28:04;;;;;;;4.60;0.90;;;17.00;99.90;;;;;;4994657;28;20723;-76
2021/05/11 00:30:30;;;;;;;1.60;1.10;;;17.00;99.90;;;;;;4955378;28;20653;-76
2021/05/11 00:32:56;;;;;;;1.43;0.90;;;16.90;99.90;;;;;;4973151;28;21064;-76
2021/05/11 00:35:22;;;;;;;2.47;0.93;;;16.90;99.90;;;;;;4995009;28;20572;-77
2021/05/11 00:37:48;;;;;;;1.70;1.30;;;16.90;99.90;;;;;;4977596;28;20163;-77
2021/05/11 00:40:14;;;;;;;2.00;1.00;;;16.80;99.90;;;;;;4977506;28;20574;-77
2021/05/11 00:42:40;;;;;;;1.87;1.33;;;16.80;99.90;;;;;;4994769;28;20560;-77
2021/05/11 00:45:07;;;;;;;1.83;1.17;;;16.80;99.90;;;;;;4995369;28;20589;-77
2021/05/11 00:47:33;;;;;;;2.33;1.30;;;16.70;99.90;;;;;;4995415;28;20173;-77
2021/05/11 00:49:59;;;;;;;2.17;1.53;;;16.70;99.90;;;;;;4978485;28;20597;-77
2021/05/11 00:52:25;;;;;;;2.03;1.60;;;16.70;99.90;;;;;;4978174;28;20662;-77
2021/05/11 00:54:50;;;;;;;1.57;1.17;;;16.70;99.90;;;;;;4995436;28;20160;-76
2021/05/11 00:57:17;;;;;;;2.57;1.10;;;16.60;99.90;;;;;;4999114;28;20167;-77
2021/05/11 00:59:44;;;;;;;2.17;1.30;;;16.60;99.90;;;;;;5007681;28;20624;-77
2021/05/11 01:02:10;;;;;;;1.87;1.10;;;16.60;99.90;;;;;;4982472;28;20621;-77
2021/05/11 01:04:37;;;;;;;1.88;1.30;;;16.60;99.90;;;;;;5001030;28;20574;-77
2021/05/11 01:07:03;;;;;;;1.55;1.33;;;16.60;99.90;;;;;;4965922;28;20726;-77
2021/05/11 01:09:31;;;;;;;1.87;1.77;;;16.50;99.90;;;;;;4992852;28;20522;-77
2021/05/11 01:11:57;;;;;;;1.75;1.50;;;16.50;99.90;;;;;;4975312;28;20657;-78
2021/05/11 01:14:28;;;;;;;3.33;1.30;;;16.50;99.90;;;;;;4997601;28;20163;-77
2021/05/11 01:16:57;;;;;;;2.70;1.20;;;16.50;99.90;;;;;;4979017;28;21196;-77
2021/05/11 01:25:04;;;;;;;1.77;1.67;;;16.40;99.90;;;;;;4918560;29;20188;-78
2021/05/11 01:44:31;;;;;;;2.90;1.88;;;16.30;99.90;;;;;;5002951;28;20190;-76
2021/05/11 02:23:53;;;;;;;2.75;2.55;;;16.30;99.90;;;;;;4984549;28;20206;-75
2021/05/11 02:26:19;;;;;;;3.08;2.78;;;16.30;99.90;;;;;;4967569;28;20186;-76
2021/05/11 02:28:45;;;;;;;2.60;2.25;;;16.20;99.90;;;;;;4964882;28;20564;-76
2021/05/11 02:31:11;;;;;;;2.53;2.23;;;16.30;99.90;;;;;;4982589;28;20179;-76
2021/05/11 02:33:37;;;;;;;3.80;2.60;;;16.30;99.90;;;;;;4991140;28;20183;-76
2021/05/11 02:36:03;;;;;;;3.10;1.80;;;16.30;99.90;;;;;;4990825;28;20167;-76
2021/05/11 02:38:29;;;;;;;2.85;2.65;;;16.30;99.90;;;;;;4990633;28;20594;-75
2021/05/11 02:40:54;;;;;;;2.70;2.50;;;16.30;99.90;;;;;;4992655;28;20656;-75
2021/05/11 02:43:25;;;;;;;2.20;1.90;;;16.30;99.90;;;;;;4992782;28;20194;-75
2021/05/11 02:45:51;;;;;;;2.47;2.27;;;16.30;99.90;;;;;;4958898;28;20262;-76
2021/05/11 02:48:17;;;;;;;2.13;1.90;;;16.30;99.90;;;;;;4974561;28;21045;-76
2021/05/11 02:50:42;;;;;;;3.20;2.13;;;16.30;99.90;;;;;;4992757;28;20210;-76
2021/05/11 02:53:08;;;;;;;2.30;2.10;;;16.40;99.90;;;;;;4992446;28;20202;-75
2021/05/11 02:55:37;;;;;;;2.23;1.80;;;16.40;99.90;;;;;;4992500;28;20619;-75
2021/05/11 02:58:02;;;;;;;1.98;1.77;;;16.40;99.90;;;;;;4958477;28;20202;-75
2021/05/11 03:00:28;;;;;;;2.53;2.33;;;16.40;99.90;;;;;;4992345;28;20159;-75
2021/05/11 03:02:55;;;;;;;2.43;1.90;;;16.40;99.90;;;;;;4992480;28;20563;-74
2021/05/11 03:05:21;;;;;;;2.20;2.03;;;16.50;99.90;;;;;;4993577;28;20669;-75
2021/05/11 03:07:47;;;;;;;1.70;1.40;;;16.50;99.90;;;;;;4978766;28;20629;-76
2021/05/11 03:10:15;;;;;;;2.57;2.23;;;16.50;99.90;;;;;;4992346;28;20937;-76
2021/05/11 03:12:41;;;;;;;2.27;2.17;;;16.60;99.90;;;;;;4992468;28;20213;-77
2021/05/11 03:15:08;;;;;;;2.13;1.93;;;16.60;99.90;;;;;;4959017;28;20578;-76
2021/05/11 03:17:35;;;;;;;1.97;1.80;;;16.60;99.90;;;;;;4992127;28;20205;-76
2021/05/11 03:20:01;;;;;;;1.97;1.77;;;16.60;99.90;;;;;;4975673;28;20625;-76
2021/05/11 03:22:27;;;;;;;2.30;2.10;;;16.70;99.90;;;;;;4996891;28;21023;-76
2021/05/11 03:24:52;;;;;;;2.87;2.30;;;16.70;99.90;;;;;;4996197;28;21145;-74
2021/05/11 03:27:18;;;;;;;2.40;2.20;;;16.70;99.90;;;;;;4991866;28;20670;-75
2021/05/11 03:29:45;;;;;;;1.90;1.80;;;16.70;99.90;;;;;;4958782;28;20158;-75
2021/05/11 03:32:11;;;;;;;2.90;2.53;;;16.70;99.90;;;;;;4992257;28;20627;-76
2021/05/11 03:34:38;;;;;;;3.13;2.30;;;16.70;99.90;;;;;;4974832;28;20202;-75
2021/05/11 03:37:05;;;;;;;2.63;2.43;;;16.80;99.90;;;;;;4991922;28;20573;-76
2021/05/11 03:39:36;;;;;;;2.53;2.33;;;16.80;99.90;;;;;;4959037;28;20617;-75
2021/05/11 03:42:50;;;;;;;2.70;2.50;;;16.80;99.90;;;;;;4993565;28;20569;-75
2021/05/11 03:45:17;;;;;;;2.97;2.60;;;16.80;99.90;;;;;;4976510;28;20577;-76
2021/05/11 03:47:46;;;;;;;3.00;2.80;;;16.90;99.90;;;;;;4945539;28;20625;-76
2021/05/11 03:50:16;;;;;;;2.30;2.10;;;16.90;99.90;;;;;;4964629;28;20585;-76
2021/05/11 03:52:42;;;;;;;4.33;2.90;;;16.90;99.90;;;;;;4991989;28;20625;-75
2021/05/11 03:55:09;;;;;;;3.53;3.00;;;16.90;99.90;;;;;;4974551;28;20566;-76
2021/05/11 03:57:34;;;;;;;3.87;3.23;;;16.90;99.90;;;;;;4991274;28;21008;-77
2021/05/11 04:00:00;;;;;;;3.83;3.53;;;17.00;99.90;;;;;;4994276;28;20574;-76
2021/05/11 04:02:26;;;;;;;6.70;3.80;;;17.00;99.90;;;;;;4962542;28;20229;-74
2021/05/11 04:04:52;;;;;;;3.70;3.30;;;17.00;99.90;;;;;;4986749;28;20175;-76
2021/05/11 04:07:18;;;;;;;5.97;4.10;;;17.10;99.90;;;;;;5008439;28;20574;-75
2021/05/11 04:09:51;;;;;;;4.70;4.20;;;17.10;99.90;;;;;;5008847;28;20618;-73
2021/05/11 04:17:50;;;;;;;4.47;3.80;;;17.10;99.90;;;;;;4974167;28;21192;-74
2021/05/11 04:20:15;;;;;;;4.67;4.37;;;17.10;99.90;;;;;;5009115;28;20573;-75
2021/05/11 04:22:41;;;;;;;4.67;4.17;;;17.10;99.90;;;;;;5007201;28;20193;-76
2021/05/11 04:25:07;;;;;;;4.10;3.60;;;17.10;99.90;;;;;;5007225;28;20463;-74
2021/05/11 04:27:33;;;;;;;4.20;3.80;;;17.10;99.90;;;;;;4987135;28;20190;-74
2021/05/11 04:30:01;;;;;;;2.40;2.10;;;17.10;99.90;;;;;;4977924;28;20661;-74
2021/05/11 04:32:27;;;;;;;4.00;2.40;;;17.10;99.90;;;;;;4994934;28;20621;-75
2021/05/11 04:34:53;;;;;;;2.07;1.80;;;17.10;99.90;;;;;;4977820;28;20573;-76
2021/05/11 04:37:19;;;;;;;1.63;1.20;;;17.10;99.90;;;;;;4994594;28;20604;-76
2021/05/11 04:39:45;;;;;;;2.23;1.30;;;17.00;99.90;;;;;;4977699;28;20574;-74
2021/05/11 04:42:11;;;;;;;1.60;1.10;;;17.00;99.90;;;;;;4977588;28;20183;-74
2021/05/11 04:44:40;;;;;;;2.10;1.30;;;17.00;99.90;;;;;;4994807;28;20665;-74
2021/05/11 04:49:34;;;;;;;1.83;0.80;;;17.00;99.90;;;;;;4994791;28;20600;-75
2021/05/11 04:52:00;;;;;;;2.20;1.00;;;17.00;99.90;;;;;;4994646;28;20633;-74
2021/05/11 04:54:26;;;;;;;1.80;0.90;;;16.90;99.90;;;;;;4977268;28;20229;-75
2021/05/11 04:56:52;;;;;;;3.10;2.10;;;16.90;99.90;;;;;;4998363;28;20562;-75
2021/05/11 04:59:18;;;;;;;1.57;1.17;;;16.90;99.90;;;;;;4994913;28;20194;-75
2021/05/11 05:01:46;;;;;;;1.50;0.90;;;16.90;99.90;;;;;;4994472;28;20167;-75
2021/05/11 05:04:13;;;;;;;2.07;1.20;;;16.90;99.90;;;;;;4994699;28;20202;-75
2021/05/11 05:06:39;;;;;;;2.13;1.00;;;16.90;99.90;;;;;;4994207;28;20567;-76
2021/05/11 05:09:05;;;;;;;1.87;1.00;;;16.90;99.90;;;;;;4960419;28;20645;-74
2021/05/11 05:11:33;;;;;;;2.47;1.00;;;16.90;99.90;;;;;;4976803;28;20239;-75
2021/05/11 05:13:59;;;;;;;1.60;1.00;;;16.90;99.90;;;;;;4994452;28;20593;-75
2021/05/11 05:16:26;;;;;;;2.55;1.20;;;16.90;99.90;;;;;;4976646;28;20612;-77
2021/05/11 05:18:51;;;;;;;2.53;1.30;;;16.90;99.90;;;;;;4994149;28;20195;-77
2021/05/11 05:21:18;;;;;;;1.73;0.80;;;16.90;99.90;;;;;;4976789;28;20581;-77
2021/05/11 05:23:47;;;;;;;2.15;1.00;;;16.90;99.90;;;;;;4994175;28;20558;-76
2021/05/11 05:26:17;;;;;;;4.30;0.83;;;16.90;99.90;;;;;;4994118;28;20167;-75
2021/05/11 05:28:43;;;;;;;1.60;1.10;;;16.90;99.90;;;;;;4976333;28;20960;-75
2021/05/11 05:31:09;;;;;;;2.63;0.90;;;17.00;99.90;;;;;;4994162;28;20558;-76
2021/05/11 05:33:37;;;;;;;4.03;0.73;;;17.00;99.90;;;;;;4980089;28;20563;-78
2021/05/11 05:36:04;;;;;;;3.20;0.97;;;17.10;99.90;;;;;;4995708;28;20586;-77
2021/05/11 05:38:31;;;;;;;3.30;1.10;;;17.20;99.90;;;;;;4976298;28;20613;-77
2021/05/11 05:41:00;;;;;;;3.50;0.90;;;17.30;99.90;;;;;;4994023;28;20577;-79
2021/05/11 05:43:26;;;;;;;1.73;1.00;;;17.40;99.90;;;;;;4994444;28;20584;-78
2021/05/11 05:45:53;;;;;;;2.63;1.00;;;17.50;99.90;;;;;;4994515;28;21090;-78
2021/05/11 05:48:20;;;;;;;2.20;0.70;;;17.50;99.90;;;;;;4993318;28;20602;-77
2021/05/11 05:50:49;;;;;;;2.73;0.90;;;17.60;99.90;;;;;;4975700;28;20574;-76
2021/05/11 05:53:22;;;;;;;1.90;0.90;;;17.70;99.90;;;;;;4993322;28;20995;-75
2021/05/11 05:55:48;;;;;;;2.80;1.30;;;17.80;99.90;;;;;;4990608;28;20577;-75
2021/05/11 05:58:13;;;;;;;1.70;0.83;;;18.00;99.90;;;;;;4955949;28;20599;-74
2021/05/11 06:00:42;;;;;;;2.10;1.00;;;18.10;99.90;;;;;;4956331;28;21104;-75
2021/05/11 06:03:28;;;;;;;4.80;0.90;;;18.10;99.90;;;;;;4973319;28;20170;-75
2021/05/11 06:05:53;;;;;;;4.10;1.07;;;18.20;99.90;;;;;;4959991;28;21179;-77
2021/05/11 06:08:19;;;;;;;1.60;1.00;;;18.20;99.90;;;;;;4992792;28;20586;-77
2021/05/11 06:10:45;;;;;;;1.80;1.20;;;18.20;99.90;;;;;;4984219;28;20184;-77
2021/05/11 06:13:17;;;;;;;2.33;1.20;;;18.10;99.90;;;;;;4924200;28;20207;-75
2021/05/11 06:18:31;;;;;;;3.00;1.10;;;18.10;99.90;;;;;;4965273;28;20631;-76
2021/05/11 06:21:01;;;;;;;4.73;1.30;;;18.10;99.90;;;;;;4959725;28;21161;-76
2021/05/11 06:23:37;;;;;;;2.27;1.00;;;18.00;99.90;;;;;;4975603;28;20621;-76
2021/05/11 06:26:07;;;;;;;1.97;1.30;;;18.10;99.90;;;;;;4939590;28;21127;-76
2021/05/11 06:28:39;;;;;;;2.00;1.10;;;18.00;99.90;;;;;;4974144;28;20190;-76
2021/05/11 06:31:04;;;;;;;2.17;0.90;;;18.00;99.90;;;;;;4963476;28;20952;-77
2021/05/11 06:33:30;;;;;;;1.70;1.10;;;18.00;99.90;;;;;;4959052;28;20618;-77
2021/05/11 06:35:56;;;;;;;1.93;1.07;;;18.00;99.90;;;;;;4990685;28;20202;-76
2021/05/11 06:38:22;;;;;;;3.43;1.13;;;17.90;99.90;;;;;;4975578;28;20675;-76
2021/05/11 06:40:48;;;;;;;2.33;1.17;;;17.90;99.90;;;;;;4955609;28;20635;-76
2021/05/11 06:43:17;;;;;;;2.07;1.20;;;17.90;99.90;;;;;;4923858;28;20215;-76
2021/05/11 06:48:38;;;;;;;2.00;1.07;;;17.90;99.90;;;;;;4942705;28;20697;-76
2021/05/11 06:53:44;;;;;;;2.97;1.30;;;18.10;99.90;;;;;;4955814;28;20587;-76
2021/05/11 06:56:12;;;;;;;2.83;1.20;;;18.10;99.90;;;;;;4967569;28;20596;-75
2021/05/11 06:58:38;;;;;;;1.90;1.20;;;18.20;99.90;;;;;;4955404;28;20611;-75
2021/05/11 07:01:05;;;;;;;2.07;0.80;;;18.30;99.90;;;;;;4972903;28;20551;-75
2021/05/11 07:03:31;;;;;;;1.90;1.10;;;18.30;99.90;;;;;;4972710;28;20574;-75
2021/05/11 07:05:59;;;;;;;2.40;1.00;;;18.40;99.90;;;;;;4955347;28;20567;-75
2021/05/11 07:08:36;;;;;;;2.40;1.00;;;18.50;99.90;;;;;;4954946;28;21190;-75
2021/05/11 07:11:12;;;;;;;2.73;1.00;;;18.50;99.90;;;;;;4972689;28;20968;-75
2021/05/11 07:13:38;;;;;;;1.77;0.90;;;18.60;99.90;;;;;;4955609;28;21122;-75
2021/05/11 07:16:04;;;;;;;2.00;1.10;;;18.70;99.90;;;;;;4972559;28;20567;-75
2021/05/11 07:18:32;;;;;;;1.63;0.87;;;18.70;99.90;;;;;;4971829;28;20211;-75
2021/05/11 07:20:59;;;;;;;1.80;1.23;;;18.80;99.90;;;;;;4954775;28;20567;-76
2021/05/11 07:23:26;;;;;;;1.30;0.90;;;19.00;99.90;;;;;;4955362;28;20598;-76
2021/05/11 07:26:25;;;;;;;3.40;1.10;;;19.20;99.90;;;;;;4994931;28;20657;-75
2021/05/11 07:31:40;;;;;;;3.87;1.00;;;19.50;99.90;;;;;;4993253;28;20653;-75
2021/05/11 07:34:07;;;;;;;1.90;1.17;;;19.60;99.90;;;;;;4996261;28;21134;-76
2021/05/11 07:36:33;;;;;;;1.43;0.90;;;19.70;99.90;;;;;;4996004;28;20175;-75
2021/05/11 07:38:59;;;;;;;1.70;0.80;;;19.80;99.90;;;;;;4962470;28;20618;-75
2021/05/11 07:41:25;;;;;;;2.03;0.97;;;19.80;99.90;;;;;;4996354;28;21114;-75
2021/05/11 07:43:56;;;;;;;1.93;1.00;;;19.80;99.90;;;;;;4996125;28;20256;-76
2021/05/11 07:46:34;;;;;;;3.90;1.13;;;19.80;99.90;;;;;;4996138;28;20583;-75
2021/05/11 08:05:29;;;;;;;3.23;1.10;;;20.00;99.90;;;;;;4958723;28;20570;-75
2021/05/11 08:16:03;;;;;;;2.80;1.73;;;19.90;99.90;;;;;;4977307;28;20594;-75
2021/05/11 08:18:42;;;;;;;2.63;1.67;;;19.90;99.90;;;;;;4977598;28;20614;-75
2021/05/11 08:29:21;;;;;;;4.03;2.03;;;20.00;99.90;;;;;;4939290;29;20599;-73
2021/05/11 08:31:47;;;;;;;4.90;2.83;;;19.90;99.90;;;;;;4956749;29;20743;-73
2021/05/11 08:34:13;;;;;;;2.90;2.57;;;19.90;99.90;;;;;;4940801;29;20588;-74
2021/05/11 08:36:39;;;;;;;3.70;2.73;;;19.80;99.90;;;;;;4941911;29;20548;-74
2021/05/11 08:39:05;;;;;;;4.03;2.60;;;19.70;99.90;;;;;;4959755;28;20188;-74
2021/05/11 08:41:31;;;;;;;4.13;2.80;;;19.60;99.90;;;;;;4957069;29;20172;-76
2021/05/11 08:43:56;;;;;;;3.47;2.83;;;19.60;99.90;;;;;;4955109;28;20560;-76
2021/05/11 08:46:22;;;;;;;2.70;2.23;;;19.60;99.90;;;;;;4955927;29;21009;-76
2021/05/11 08:48:50;;;;;;;2.90;2.30;;;19.60;99.90;;;;;;4956122;28;20195;-76
2021/05/11 09:04:40;;;;;;;2.97;1.93;;;19.80;99.90;;;;;;4955906;29;20930;-76
2021/05/11 09:25:33;;;;;;;5.70;4.20;;;21.80;99.90;;;;;;4977083;28;20570;-76
2021/05/11 09:28:26;;;;;;;4.23;3.03;;;22.40;99.90;;;;;;4977498;28;20986;-76
2021/05/11 09:33:30;;;;;;;3.70;2.23;;;23.40;99.90;;;;;;4976611;28;20622;-74
2021/05/11 09:56:31;;;;;;;2.63;2.43;;;22.90;99.90;;;;;;4975117;28;20582;-78
2021/05/11 10:49:31;;;;;;;4.60;2.70;;;22.00;99.90;;;;;;4996152;28;20664;-81
2021/05/11 10:52:26;;;;;;;4.03;3.67;;;22.00;99.90;;;;;;4979491;28;20979;-81
2021/05/11 10:54:56;;;;;;;4.00;3.27;;;22.00;99.90;;;;;;4994863;28;20582;-81
2021/05/11 10:58:19;;;;;;;4.20;3.30;;;22.00;99.90;;;;;;4974608;28;20694;-81
2021/05/11 11:01:07;;;;;;;3.67;2.83;;;21.90;99.90;;;;;;4966272;28;20587;-81
2021/05/11 11:03:21;;;;;;;5.07;4.00;;;21.80;99.90;;;;;;4982805;28;20597;-81
2021/05/11 11:06:00;;;;;;;4.60;3.50;;;21.60;99.90;;;;;;4977025;28;20586;-82
2021/05/11 11:08:42;;;;;;;4.30;4.00;;;21.60;99.90;;;;;;4976290;28;20724;-82
2021/05/11 11:11:20;;;;;;;4.23;3.17;;;21.40;99.90;;;;;;4960031;28;20660;-82
2021/05/11 11:13:48;;;;;;;3.50;3.20;;;21.40;99.90;;;;;;4976128;28;20697;-82
2021/05/11 11:16:15;;;;;;;4.63;3.33;;;21.20;99.90;;;;;;4976106;28;20570;-82
2021/05/11 11:18:42;;;;;;;7.20;5.00;;;21.10;99.90;;;;;;4975348;28;20630;-81
2021/05/11 11:23:47;;;;;;;4.53;3.77;;;20.90;99.90;;;;;;4957863;28;20658;-81
2021/05/11 11:26:13;;;;;;;3.73;3.30;;;20.90;99.90;;;;;;4957556;28;20583;-82
2021/05/11 11:28:39;;;;;;;4.37;3.07;;;20.90;99.90;;;;;;4963117;28;20610;-80
2021/05/11 11:31:26;;;;;;;3.97;3.07;;;20.80;99.90;;;;;;4974487;28;20692;-81
2021/05/11 11:33:52;;;;;;;4.37;3.50;;;20.80;99.90;;;;;;4976143;28;20586;-81
2021/05/11 11:36:34;;;;;;;6.67;4.70;;;20.70;99.90;;;;;;4967817;28;20675;-82
2021/05/11 11:39:04;;;;;;;6.97;3.90;;;20.70;99.90;;;;;;4973727;28;20663;-81
2021/05/11 11:41:30;;;;;;;4.43;3.97;;;20.70;99.90;;;;;;4958650;28;20582;-82
2021/05/11 11:43:56;;;;;;;4.57;4.07;;;20.60;99.90;;;;;;4956365;28;20556;-82
2021/05/11 11:46:29;;;;;;;7.70;4.47;;;20.60;99.90;;;;;;4954318;28;20950;-82
2021/05/11 11:49:04;;;;;;;4.73;4.23;;;20.50;99.90;;;;;;4976489;28;20270;-82
2021/05/11 11:51:34;;;;;;;4.53;4.13;;;20.50;99.90;;;;;;4973605;28;20571;-80
2021/05/11 11:54:10;;;;;;;8.13;5.00;;;20.50;99.90;;;;;;4955565;28;20564;-82
2021/05/11 11:59:20;;;;;;;4.60;4.20;;;20.40;99.90;;;;;;4954675;28;20603;-81
2021/05/11 12:02:05;;;;;;;6.37;5.10;;;20.30;99.90;;;;;;4972269;28;20559;-80
2021/05/11 12:04:31;;;;;;;5.60;5.00;;;20.20;99.90;;;;;;4955574;28;21023;-80
2021/05/11 12:07:05;;;;;;;5.00;4.60;;;20.20;99.90;;;;;;4956867;28;20597;-80
2021/05/11 12:09:32;;;;;;;4.67;4.17;;;20.20;99.90;;;;;;4971095;28;20615;-79
2021/05/11 12:12:04;;;;;;;6.70;4.00;;;20.10;99.90;;;;;;4973263;28;20642;-80
2021/05/11 12:14:37;;;;;;;5.63;4.93;;;20.00;99.90;;;;;;4960988;28;20595;-80
2021/05/11 12:17:02;;;;;;;5.87;5.27;;;20.00;99.90;;;;;;4972792;28;20589;-75
2021/05/11 12:19:30;;;;;;;6.23;4.80;;;20.00;99.90;;;;;;4957669;28;20678;-75
2021/05/11 12:22:06;;;;;;;5.43;4.90;;;20.00;99.90;;;;;;4959272;28;20590;-76
2021/05/11 12:24:40;;;;;;;7.40;6.70;;;20.00;99.90;;;;;;4960228;28;20597;-75
2021/05/11 12:27:18;;;;;;;8.00;7.30;;;20.10;99.90;;;;;;4963429;28;20577;-78
2021/05/11 12:30:05;;;;;;;6.80;6.10;;;20.20;99.90;;;;;;4964289;28;20582;-76
2021/05/11 12:32:35;;;;;;;7.47;5.73;;;20.20;99.90;;;;;;4967301;28;20983;-76
2021/05/11 12:35:12;;;;;;;8.90;6.20;;;20.20;99.90;;;;;;4987941;28;20563;-77
2021/05/11 12:37:55;;;;;;;7.20;5.33;;;20.20;99.90;;;;;;4986653;28;20645;-77
2021/05/11 12:40:28;;;;;;;5.50;5.00;;;20.30;99.90;;;;;;4979487;28;20582;-76
2021/05/11 12:42:56;;;;;;;6.40;5.37;;;20.30;99.90;;;;;;4978592;28;20571;-77
2021/05/11 12:45:26;;;;;;;4.60;4.20;;;20.20;99.90;;;;;;4975892;28;20613;-77
2021/05/11 12:48:02;;;;;;;5.90;5.40;;;20.20;99.90;;;;;;4976685;28;20630;-76
2021/05/11 12:50:33;;;;;;;6.43;4.60;;;20.20;99.90;;;;;;4978760;28;20582;-77
2021/05/11 12:53:17;;;;;;;7.03;5.17;;;20.20;99.90;;;;;;4977563;28;20610;-76
2021/05/11 12:59:02;;;;;;;5.90;5.30;;;20.20;99.90;;;;;;4981192;28;20586;-78
2021/05/11 13:16:09;;;;;;;4.10;3.70;;;20.80;99.90;;;;;;4974998;28;20571;-76
2021/05/11 13:30:14;;;;;;;3.77;3.47;;;21.40;99.90;;;;;;4949389;28;20607;-76
2021/05/11 13:37:01;;;;;;;4.87;3.27;;;21.50;99.90;;;;;;4954064;28;20617;-76
2021/05/11 13:39:27;;;;;;;3.07;2.80;;;21.40;99.90;;;;;;4975442;28;20606;-77
2021/05/11 13:41:53;;;;;;;3.90;3.17;;;21.40;99.90;;;;;;4957712;28;20678;-76
2021/05/11 13:44:19;;;;;;;3.47;3.07;;;21.30;99.90;;;;;;4926439;28;20598;-76
2021/05/11 13:46:45;;;;;;;4.03;3.73;;;21.20;99.90;;;;;;4960641;28;20587;-76
2021/05/11 13:49:14;;;;;;;5.63;5.13;;;21.20;99.90;;;;;;4970810;28;20202;-75
2021/05/11 13:51:39;;;;;;;6.23;4.80;;;21.10;99.90;;;;;;4987617;28;20198;-76
2021/05/11 13:54:07;;;;;;;5.40;4.70;;;21.00;99.90;;;;;;4965234;28;20654;-76
2021/05/11 14:04:30;;;;;;;7.07;3.50;;;20.60;99.90;;;;;;4978727;28;20575;-77
2021/05/11 14:06:56;;;;;;;4.33;3.90;;;20.60;99.90;;;;;;4959997;28;20550;-76
2021/05/11 14:09:22;;;;;;;7.50;3.77;;;20.50;99.90;;;;;;4959146;28;20982;-76
2021/05/11 14:11:48;;;;;;;5.03;4.30;;;20.50;99.90;;;;;;4959509;28;20627;-76
2021/05/11 14:14:14;;;;;;;5.83;5.23;;;20.40;99.90;;;;;;4961586;28;20595;-77
2021/05/11 14:16:45;;;;;;;9.30;5.40;;;20.40;99.90;;;;;;4965908;28;20574;-78
2021/05/11 14:19:12;;;;;;;6.50;5.00;;;20.40;99.90;;;;;;4982303;28;20622;-78
2021/05/11 14:21:38;;;;;;;6.87;6.00;;;20.40;99.90;;;;;;4967293;28;20587;-78
2021/05/11 14:24:04;;;;;;;5.20;4.53;;;20.40;99.90;;;;;;4985742;28;20579;-77
2021/05/11 14:26:31;;;;;;;5.53;4.73;;;20.40;99.90;;;;;;4963997;28;20568;-78
2021/05/11 14:29:17;;;;;;;5.33;4.57;;;20.40;99.90;;;;;;4981702;28;20610;-76
2021/05/11 14:31:50;;;;;;;4.70;4.20;;;20.30;99.90;;;;;;4953602;28;20610;-78
2021/05/11 14:34:16;;;;;;;6.83;3.73;;;20.40;99.90;;;;;;4991225;28;20615;-78
2021/05/11 14:36:45;;;;;;;4.23;3.83;;;20.40;99.90;;;;;;4994136;28;20659;-79
2021/05/11 14:39:11;;;;;;;3.60;3.30;;;20.30;99.90;;;;;;4977524;28;20626;-77
2021/05/11 14:41:37;;;;;;;3.33;3.03;;;20.40;99.90;;;;;;4951585;29;20623;-78
2021/05/11 14:44:04;;;;;;;5.37;4.13;;;20.30;99.90;;;;;;4969152;29;20208;-77
2021/05/11 14:46:30;;;;;;;7.40;5.20;;;20.30;99.90;;;;;;4965293;28;20184;-78
2021/05/11 14:48:55;;;;;;;4.37;3.97;;;20.20;99.90;;;;;;4980393;28;20618;-76
2021/05/11 14:51:21;;;;;;;3.80;3.50;;;20.10;99.90;;;;;;4980263;28;20168;-77
2021/05/11 14:53:48;;;;;;;3.80;3.40;;;20.10;99.90;;;;;;4985640;28;20200;-78
2021/05/11 14:56:15;;;;;;;3.57;2.63;;;20.00;99.90;;;;;;4990831;28;20574;-77
2021/05/11 14:58:40;;;;;;;3.50;2.43;;;19.90;99.90;;;;;;4964371;28;21168;-77
2021/05/11 15:01:42;;;;;;;3.37;3.07;;;19.90;99.90;;;;;;4977410;28;21137;-79
2021/05/11 15:04:11;;;;;;;4.10;2.90;;;19.80;99.90;;;;;;4943356;28;20606;-78
2021/05/11 15:06:36;;;;;;;4.30;3.20;;;19.70;99.90;;;;;;4987935;28;20588;-77
2021/05/11 15:09:02;;;;;;;5.57;2.97;;;19.70;99.90;;;;;;4962244;28;20199;-79
2021/05/11 15:11:28;;;;;;;5.67;2.80;;;19.60;99.90;;;;;;4955665;28;20182;-78
2021/05/11 15:14:01;;;;;;;6.57;3.50;;;19.60;99.90;;;;;;4973062;28;20568;-78
2021/05/11 15:16:28;;;;;;;4.80;3.20;;;19.50;99.90;;;;;;4971943;28;20624;-77
2021/05/11 15:18:53;;;;;;;3.60;3.30;;;19.40;99.90;;;;;;4955687;28;20626;-78
2021/05/11 15:21:35;;;;;;;5.00;3.43;;;19.30;99.90;;;;;;4955916;28;20626;-78
2021/05/11 15:24:22;;;;;;;3.27;2.97;;;19.30;99.90;;;;;;4942192;28;20230;-78
2021/05/11 15:26:47;;;;;;;3.93;3.03;;;19.20;99.90;;;;;;4955610;28;20567;-78
2021/05/11 15:29:16;;;;;;;4.30;2.70;;;19.20;99.90;;;;;;4955640;28;20195;-76
2021/05/11 15:31:42;;;;;;;3.73;3.43;;;19.10;99.90;;;;;;4972386;28;20191;-76
2021/05/11 15:34:10;;;;;;;3.93;3.43;;;19.10;99.90;;;;;;4972498;28;20579;-75
2021/05/11 15:36:36;;;;;;;4.43;3.70;;;19.10;99.90;;;;;;4942403;28;20597;-75
2021/05/11 15:39:02;;;;;;;5.57;3.43;;;19.10;99.90;;;;;;4975528;28;20674;-76
2021/05/11 15:41:28;;;;;;;5.27;3.60;;;19.20;99.90;;;;;;4972567;28;20175;-75
2021/05/11 15:43:57;;;;;;;4.90;3.20;;;19.20;99.90;;;;;;4954798;28;20638;-75
2021/05/11 15:46:22;;;;;;;4.93;3.53;;;19.20;99.90;;;;;;4971476;28;20201;-75
2021/05/11 15:48:48;;;;;;;4.13;3.13;;;19.30;99.90;;;;;;4954293;28;21005;-76
2021/05/11 15:51:14;;;;;;;4.40;2.70;;;19.30;99.90;;;;;;4972331;28;20594;-76
2021/05/11 15:53:40;;;;;;;3.43;3.13;;;19.30;99.90;;;;;;4974735;28;20198;-74
2021/05/11 15:56:06;;;;;;;4.23;3.17;;;19.30;99.90;;;;;;4949656;28;20182;-74
2021/05/11 15:58:31;;;;;;;3.60;3.30;;;19.30;99.90;;;;;;4986023;28;21246;-73
2021/05/11 16:01:40;;;;;;;4.30;3.90;;;19.30;99.90;;;;;;4995250;28;20167;-74
2021/05/11 16:04:09;;;;;;;3.30;2.63;;;19.30;99.90;;;;;;4939440;29;20235;-74
2021/05/11 16:06:35;;;;;;;4.00;3.60;;;19.30;99.90;;;;;;4955911;29;20568;-74
2021/05/11 16:09:21;;;;;;;3.50;3.20;;;19.30;99.90;;;;;;4939062;29;20250;-74
2021/05/11 16:11:46;;;;;;;3.87;3.00;;;19.30;99.90;;;;;;4983663;28;20217;-74
2021/05/11 16:14:31;;;;;;;4.13;3.73;;;19.30;99.90;;;;;;4959755;28;20626;-74
2021/05/11 16:16:56;;;;;;;3.10;2.80;;;19.30;99.90;;;;;;4957138;28;20219;-74
2021/05/11 16:19:22;;;;;;;2.20;2.00;;;19.30;99.90;;;;;;4957736;28;20634;-74
2021/05/11 16:21:48;;;;;;;3.33;2.93;;;19.30;99.90;;;;;;4975456;28;20187;-75
2021/05/11 16:24:13;;;;;;;2.80;2.50;;;19.20;99.90;;;;;;4957825;28;20183;-74
2021/05/11 16:26:39;;;;;;;3.77;3.10;;;19.20;99.90;;;;;;4957600;28;20202;-74
2021/05/11 16:29:05;;;;;;;3.53;2.70;;;19.20;99.90;;;;;;4973487;28;20198;-74
2021/05/11 16:31:31;;;;;;;3.43;3.13;;;19.20;99.90;;;;;;4970898;28;20176;-74
2021/05/11 16:33:59;;;;;;;4.53;2.70;;;19.20;99.90;;;;;;4974084;28;20567;-74
2021/05/11 16:36:25;;;;;;;4.60;3.40;;;19.10;99.90;;;;;;4974914;28;20168;-75
2021/05/11 16:38:51;;;;;;;3.23;2.93;;;19.10;99.90;;;;;;4947391;28;20617;-74
2021/05/11 16:41:17;;;;;;;6.03;3.83;;;19.10;99.90;;;;;;4994684;28;20175;-74
2021/05/11 16:43:43;;;;;;;6.67;3.57;;;19.10;99.90;;;;;;4994335;28;20186;-74
2021/05/11 16:46:09;;;;;;;4.13;3.40;;;19.10;99.90;;;;;;4977158;28;20997;-74
2021/05/11 16:48:34;;;;;;;4.00;3.43;;;19.10;99.90;;;;;;4970041;28;20614;-74
2021/05/11 16:51:01;;;;;;;5.10;3.37;;;19.10;99.90;;;;;;4941537;28;20610;-74
2021/05/11 16:53:28;;;;;;;6.17;2.93;;;19.10;99.90;;;;;;4974721;28;20286;-74
2021/05/11 16:55:54;;;;;;;4.90;3.17;;;19.10;99.90;;;;;;4957485;28;20571;-74
2021/05/11 16:58:20;;;;;;;4.20;3.13;;;19.10;99.90;;;;;;4974033;28;21217;-74
2021/05/11 17:00:46;;;;;;;5.03;3.40;;;19.10;99.90;;;;;;4974120;28;20571;-75
2021/05/11 17:03:11;;;;;;;3.73;2.67;;;19.00;99.90;;;;;;4972979;28;20636;-74
2021/05/11 17:05:38;;;;;;;4.70;4.30;;;19.00;99.90;;;;;;4976173;28;20179;-74
2021/05/11 17:08:10;;;;;;;3.97;3.57;;;18.90;99.90;;;;;;4993476;28;20614;-74
2021/05/11 17:10:36;;;;;;;4.60;4.03;;;18.90;99.90;;;;;;4994591;28;20637;-74
2021/05/11 17:13:03;;;;;;;4.50;4.10;;;18.90;99.90;;;;;;4976568;28;20620;-75
2021/05/11 17:15:33;;;;;;;5.40;4.03;;;18.90;99.90;;;;;;4982230;28;20623;-75
2021/05/11 17:17:59;;;;;;;4.60;4.20;;;18.90;99.90;;;;;;4940512;28;20627;-76
2021/05/11 17:20:27;;;;;;;4.33;3.90;;;18.90;99.90;;;;;;4974308;28;21126;-74